sensor_id;sensor_type;location;lat;lon;timestamp;temperature;humidity
9215;DHT22;4642;51.364;6.788;2022-11-10T00:00:29;10.10;99.90
9215;DHT22;4642;51.364;6.788;2022-11-10T00:03:03;10.10;99.90
9215;DHT22;4642;51.364;6.788;2022-11-10T00:05:29;10.10;99.90
9215;DHT22;4642;51.364;6.788;2022-11-10T00:07:55;10.10;99.90
9215;DHT22;4642;51.364;6.788;2022-11-10T00:10:20;10.20;99.90
9215;DHT22;4642;51.364;6.788;2022-11-10T00:12:46;10.10;99.90
9215;DHT22;4642;51.364;6.788;2022-11-10T00:15:11;10.10;99.90
9215;DHT22;4642;51.364;6.788;2022-11-10T00:17:55;10.10;99.90
9215;DHT22;4642;51.364;6.788;2022-11-10T00:20:21;10.10;99.90
9215;DHT22;4642;51.364;6.788;2022-11-10T00:22:46;10.10;99.90
9215;DHT22;4642;51.364;6.788;2022-11-10T00:25:12;10.00;99.90
9215;DHT22;4642;51.364;6.788;2022-11-10T00:27:38;10.00;99.90
9215;DHT22;4642;51.364;6.788;2022-11-10T00:30:04;10.00;99.90
9215;DHT22;4642;51.364;6.788;2022-11-10T00:32:30;10.00;99.90
9215;DHT22;4642;51.364;6.788;2022-11-10T00:34:56;9.90;99.90
9215;DHT22;4642;51.364;6.788;2022-11-10T00:37:21;9.90;99.90
9215;DHT22;4642;51.364;6.788;2022-11-10T00:39:47;9.90;99.90
9215;DHT22;4642;51.364;6.788;2022-11-10T00:42:13;9.90;99.90
9215;DHT22;4642;51.364;6.788;2022-11-10T00:44:38;9.90;99.90
9215;DHT22;4642;51.364;6.788;2022-11-10T00:47:04;9.90;99.90
9215;DHT22;4642;51.364;6.788;2022-11-10T00:49:29;9.90;99.90
9215;DHT22;4642;51.364;6.788;2022-11-10T00:51:55;9.90;99.90
9215;DHT22;4642;51.364;6.788;2022-11-10T00:54:20;9.90;99.90
9215;DHT22;4642;51.364;6.788;2022-11-10T00:56:46;9.90;99.90
9215;DHT22;4642;51.364;6.788;2022-11-10T00:59:11;9.90;99.90
9215;DHT22;4642;51.364;6.788;2022-11-10T01:01:37;9.90;99.90
9215;DHT22;4642;51.364;6.788;2022-11-10T01:04:02;9.80;99.90
9215;DHT22;4642;51.364;6.788;2022-11-10T01:06:28;9.80;99.90
9215;DHT22;4642;51.364;6.788;2022-11-10T01:08:53;9.80;99.90
9215;DHT22;4642;51.364;6.788;2022-11-10T01:11:22;9.80;99.90
9215;DHT22;4642;51.364;6.788;2022-11-10T01:13:50;9.80;99.90
9215;DHT22;4642;51.364;6.788;2022-11-10T01:16:23;9.80;99.90
9215;DHT22;4642;51.364;6.788;2022-11-10T01:18:53;9.80;99.90
9215;DHT22;4642;51.364;6.788;2022-11-10T01:21:20;9.80;99.90
9215;DHT22;4642;51.364;6.788;2022-11-10T01:23:46;9.80;99.90
9215;DHT22;4642;51.364;6.788;2022-11-10T01:26:13;9.80;99.90
9215;DHT22;4642;51.364;6.788;2022-11-10T01:28:39;9.80;99.90
9215;DHT22;4642;51.364;6.788;2022-11-10T01:31:10;9.80;99.90
9215;DHT22;4642;51.364;6.788;2022-11-10T01:33:36;9.80;99.90
9215;DHT22;4642;51.364;6.788;2022-11-10T01:36:02;9.80;99.90
9215;DHT22;4642;51.364;6.788;2022-11-10T01:38:30;9.80;99.90
9215;DHT22;4642;51.364;6.788;2022-11-10T01:40:56;9.80;99.90
9215;DHT22;4642;51.364;6.788;2022-11-10T01:43:22;9.90;99.90
9215;DHT22;4642;51.364;6.788;2022-11-10T01:45:58;9.80;99.90
9215;DHT22;4642;51.364;6.788;2022-11-10T01:48:58;9.80;99.90
9215;DHT22;4642;51.364;6.788;2022-11-10T01:51:39;9.80;99.90
9215;DHT22;4642;51.364;6.788;2022-11-10T01:54:29;9.80;99.90
9215;DHT22;4642;51.364;6.788;2022-11-10T01:57:02;9.80;99.90
9215;DHT22;4642;51.364;6.788;2022-11-10T01:59:32;9.80;99.90
9215;DHT22;4642;51.364;6.788;2022-11-10T02:02:10;9.80;99.90
9215;DHT22;4642;51.364;6.788;2022-11-10T02:04:36;9.80;99.90
9215;DHT22;4642;51.364;6.788;2022-11-10T02:07:03;9.80;99.90
9215;DHT22;4642;51.364;6.788;2022-11-10T02:09:29;9.80;99.90
9215;DHT22;4642;51.364;6.788;2022-11-10T02:11:54;9.80;99.90
9215;DHT22;4642;51.364;6.788;2022-11-10T02:14:20;9.80;99.90
9215;DHT22;4642;51.364;6.788;2022-11-10T02:16:46;9.70;99.90
9215;DHT22;4642;51.364;6.788;2022-11-10T02:19:18;9.70;99.90
9215;DHT22;4642;51.364;6.788;2022-11-10T02:21:44;9.80;99.90
9215;DHT22;4642;51.364;6.788;2022-11-10T02:24:09;9.80;99.90
9215;DHT22;4642;51.364;6.788;2022-11-10T02:26:38;9.70;99.90
9215;DHT22;4642;51.364;6.788;2022-11-10T02:29:06;9.70;99.90
9215;DHT22;4642;51.364;6.788;2022-11-10T02:31:32;9.70;99.90
9215;DHT22;4642;51.364;6.788;2022-11-10T02:33:57;9.80;99.90
9215;DHT22;4642;51.364;6.788;2022-11-10T02:36:23;9.70;99.90
9215;DHT22;4642;51.364;6.788;2022-11-10T02:38:48;9.80;99.90
9215;DHT22;4642;51.364;6.788;2022-11-10T02:41:14;9.80;99.90
9215;DHT22;4642;51.364;6.788;2022-11-10T02:43:39;9.70;99.90
9215;DHT22;4642;51.364;6.788;2022-11-10T02:46:05;9.70;99.90
9215;DHT22;4642;51.364;6.788;2022-11-10T02:48:31;9.70;99.90
9215;DHT22;4642;51.364;6.788;2022-11-10T02:50:56;9.70;99.90
9215;DHT22;4642;51.364;6.788;2022-11-10T02:53:22;9.70;99.90
9215;DHT22;4642;51.364;6.788;2022-11-10T02:55:47;9.70;99.90
9215;DHT22;4642;51.364;6.788;2022-11-10T02:58:12;9.60;99.90
9215;DHT22;4642;51.364;6.788;2022-11-10T03:00:38;9.70;99.90
9215;DHT22;4642;51.364;6.788;2022-11-10T03:03:04;9.60;99.90
9215;DHT22;4642;51.364;6.788;2022-11-10T03:05:30;9.60;99.90
9215;DHT22;4642;51.364;6.788;2022-11-10T03:07:58;9.60;99.90
9215;DHT22;4642;51.364;6.788;2022-11-10T03:10:24;9.60;99.90
9215;DHT22;4642;51.364;6.788;2022-11-10T03:12:54;9.60;99.90
9215;DHT22;4642;51.364;6.788;2022-11-10T03:15:21;9.60;99.90
9215;DHT22;4642;51.364;6.788;2022-11-10T03:17:47;9.60;99.90
9215;DHT22;4642;51.364;6.788;2022-11-10T03:20:13;9.60;99.90
9215;DHT22;4642;51.364;6.788;2022-11-10T03:22:38;9.60;99.90
9215;DHT22;4642;51.364;6.788;2022-11-10T03:25:04;9.50;99.90
9215;DHT22;4642;51.364;6.788;2022-11-10T03:27:30;9.50;99.90
9215;DHT22;4642;51.364;6.788;2022-11-10T03:29:55;9.50;99.90
9215;DHT22;4642;51.364;6.788;2022-11-10T03:32:21;9.50;99.90
9215;DHT22;4642;51.364;6.788;2022-11-10T03:34:46;9.50;99.90
9215;DHT22;4642;51.364;6.788;2022-11-10T03:37:12;9.50;99.90
9215;DHT22;4642;51.364;6.788;2022-11-10T03:39:38;9.50;99.90
9215;DHT22;4642;51.364;6.788;2022-11-10T03:42:04;9.50;99.90
9215;DHT22;4642;51.364;6.788;2022-11-10T03:44:29;9.50;99.90
9215;DHT22;4642;51.364;6.788;2022-11-10T03:46:55;9.50;99.90
9215;DHT22;4642;51.364;6.788;2022-11-10T03:49:20;9.50;99.90
9215;DHT22;4642;51.364;6.788;2022-11-10T03:51:46;9.50;99.90
9215;DHT22;4642;51.364;6.788;2022-11-10T03:54:11;9.50;99.90
9215;DHT22;4642;51.364;6.788;2022-11-10T03:56:37;9.50;99.90
9215;DHT22;4642;51.364;6.788;2022-11-10T03:59:03;9.40;99.90
9215;DHT22;4642;51.364;6.788;2022-11-10T04:01:28;9.40;99.90
9215;DHT22;4642;51.364;6.788;2022-11-10T04:03:56;9.40;99.90
9215;DHT22;4642;51.364;6.788;2022-11-10T04:06:30;10.00;99.90
9215;DHT22;4642;51.364;6.788;2022-11-10T04:09:34;9.30;99.90
9215;DHT22;4642;51.364;6.788;2022-11-10T04:12:00;9.20;99.90
9215;DHT22;4642;51.364;6.788;2022-11-10T04:14:47;9.20;99.90
9215;DHT22;4642;51.364;6.788;2022-11-10T04:17:34;9.80;99.90
9215;DHT22;4642;51.364;6.788;2022-11-10T04:20:03;9.40;99.90
9215;DHT22;4642;51.364;6.788;2022-11-10T04:22:29;9.30;99.90
9215;DHT22;4642;51.364;6.788;2022-11-10T04:25:33;9.20;99.90
9215;DHT22;4642;51.364;6.788;2022-11-10T04:28:21;9.10;99.90
9215;DHT22;4642;51.364;6.788;2022-11-10T04:30:47;9.20;99.90
9215;DHT22;4642;51.364;6.788;2022-11-10T04:33:13;9.20;99.90
9215;DHT22;4642;51.364;6.788;2022-11-10T04:35:44;9.20;99.90
9215;DHT22;4642;51.364;6.788;2022-11-10T04:38:10;9.10;99.90
9215;DHT22;4642;51.364;6.788;2022-11-10T04:40:38;9.10;99.90
9215;DHT22;4642;51.364;6.788;2022-11-10T04:43:06;8.80;99.90
9215;DHT22;4642;51.364;6.788;2022-11-10T04:45:35;9.30;99.90
9215;DHT22;4642;51.364;6.788;2022-11-10T04:48:04;9.10;99.90
9215;DHT22;4642;51.364;6.788;2022-11-10T04:50:37;9.10;99.90
9215;DHT22;4642;51.364;6.788;2022-11-10T04:53:06;9.00;99.90
9215;DHT22;4642;51.364;6.788;2022-11-10T04:55:32;9.00;99.90
9215;DHT22;4642;51.364;6.788;2022-11-10T04:57:57;8.20;99.90
9215;DHT22;4642;51.364;6.788;2022-11-10T05:00:33;9.00;99.90
9215;DHT22;4642;51.364;6.788;2022-11-10T05:03:00;8.70;99.90
9215;DHT22;4642;51.364;6.788;2022-11-10T05:05:31;9.10;99.90
9215;DHT22;4642;51.364;6.788;2022-11-10T05:08:01;9.00;99.90
9215;DHT22;4642;51.364;6.788;2022-11-10T05:10:26;9.10;99.90
9215;DHT22;4642;51.364;6.788;2022-11-10T05:12:54;9.10;99.90
9215;DHT22;4642;51.364;6.788;2022-11-10T05:15:20;9.10;99.90
9215;DHT22;4642;51.364;6.788;2022-11-10T05:17:50;9.10;99.90
9215;DHT22;4642;51.364;6.788;2022-11-10T05:20:17;9.10;99.90
9215;DHT22;4642;51.364;6.788;2022-11-10T05:22:44;9.10;99.90
9215;DHT22;4642;51.364;6.788;2022-11-10T05:25:10;9.20;99.90
9215;DHT22;4642;51.364;6.788;2022-11-10T05:27:36;9.10;99.90
9215;DHT22;4642;51.364;6.788;2022-11-10T05:30:01;9.10;99.90
9215;DHT22;4642;51.364;6.788;2022-11-10T05:32:27;9.10;99.90
9215;DHT22;4642;51.364;6.788;2022-11-10T05:34:52;9.10;99.90
9215;DHT22;4642;51.364;6.788;2022-11-10T05:37:18;9.20;99.90
9215;DHT22;4642;51.364;6.788;2022-11-10T05:39:43;9.20;99.90
9215;DHT22;4642;51.364;6.788;2022-11-10T05:42:09;9.10;99.90
9215;DHT22;4642;51.364;6.788;2022-11-10T05:44:34;9.10;99.90
9215;DHT22;4642;51.364;6.788;2022-11-10T05:47:00;9.10;99.90
9215;DHT22;4642;51.364;6.788;2022-11-10T05:49:25;9.10;99.90
9215;DHT22;4642;51.364;6.788;2022-11-10T05:51:51;9.10;99.90
9215;DHT22;4642;51.364;6.788;2022-11-10T05:54:17;9.10;99.90
9215;DHT22;4642;51.364;6.788;2022-11-10T05:56:42;9.10;99.90
9215;DHT22;4642;51.364;6.788;2022-11-10T05:59:08;9.10;99.90
9215;DHT22;4642;51.364;6.788;2022-11-10T06:01:33;9.00;99.90
9215;DHT22;4642;51.364;6.788;2022-11-10T06:03:59;9.00;99.90
9215;DHT22;4642;51.364;6.788;2022-11-10T06:06:24;9.00;99.90
9215;DHT22;4642;51.364;6.788;2022-11-10T06:08:50;9.00;99.90
9215;DHT22;4642;51.364;6.788;2022-11-10T06:11:16;8.90;99.90
9215;DHT22;4642;51.364;6.788;2022-11-10T06:13:41;8.90;99.90
9215;DHT22;4642;51.364;6.788;2022-11-10T06:16:07;8.80;99.90
9215;DHT22;4642;51.364;6.788;2022-11-10T06:18:32;8.80;99.90
9215;DHT22;4642;51.364;6.788;2022-11-10T06:20:58;8.70;99.90
9215;DHT22;4642;51.364;6.788;2022-11-10T06:23:23;8.70;99.90
9215;DHT22;4642;51.364;6.788;2022-11-10T06:25:50;8.70;99.90
9215;DHT22;4642;51.364;6.788;2022-11-10T06:28:15;8.60;99.90
9215;DHT22;4642;51.364;6.788;2022-11-10T06:30:41;8.70;99.90
9215;DHT22;4642;51.364;6.788;2022-11-10T06:33:07;8.70;99.90
9215;DHT22;4642;51.364;6.788;2022-11-10T06:35:33;8.70;99.90
9215;DHT22;4642;51.364;6.788;2022-11-10T06:38:01;8.70;99.90
9215;DHT22;4642;51.364;6.788;2022-11-10T06:40:28;8.70;99.90
9215;DHT22;4642;51.364;6.788;2022-11-10T06:42:54;8.70;99.90
9215;DHT22;4642;51.364;6.788;2022-11-10T06:45:20;8.60;99.90
9215;DHT22;4642;51.364;6.788;2022-11-10T06:47:46;8.70;99.90
9215;DHT22;4642;51.364;6.788;2022-11-10T06:50:11;8.70;99.90
9215;DHT22;4642;51.364;6.788;2022-11-10T06:52:37;8.70;99.90
9215;DHT22;4642;51.364;6.788;2022-11-10T06:55:03;8.70;99.90
9215;DHT22;4642;51.364;6.788;2022-11-10T06:57:29;8.70;99.90
9215;DHT22;4642;51.364;6.788;2022-11-10T06:59:54;8.80;99.90
9215;DHT22;4642;51.364;6.788;2022-11-10T07:02:20;8.70;99.90
9215;DHT22;4642;51.364;6.788;2022-11-10T07:04:45;8.70;99.90
9215;DHT22;4642;51.364;6.788;2022-11-10T07:07:11;8.70;99.90
9215;DHT22;4642;51.364;6.788;2022-11-10T07:09:37;8.70;99.90
9215;DHT22;4642;51.364;6.788;2022-11-10T07:12:03;8.70;99.90
9215;DHT22;4642;51.364;6.788;2022-11-10T07:14:29;8.70;99.90
9215;DHT22;4642;51.364;6.788;2022-11-10T07:16:54;8.70;99.90
9215;DHT22;4642;51.364;6.788;2022-11-10T07:19:20;8.70;99.90
9215;DHT22;4642;51.364;6.788;2022-11-10T07:21:45;8.70;99.90
9215;DHT22;4642;51.364;6.788;2022-11-10T07:24:11;8.70;99.90
9215;DHT22;4642;51.364;6.788;2022-11-10T07:26:36;8.70;99.90
9215;DHT22;4642;51.364;6.788;2022-11-10T07:29:02;8.80;99.90
9215;DHT22;4642;51.364;6.788;2022-11-10T07:31:28;8.80;99.90
9215;DHT22;4642;51.364;6.788;2022-11-10T07:33:53;8.80;99.90
9215;DHT22;4642;51.364;6.788;2022-11-10T07:36:19;8.80;99.90
9215;DHT22;4642;51.364;6.788;2022-11-10T07:38:44;8.80;99.90
9215;DHT22;4642;51.364;6.788;2022-11-10T07:41:10;8.90;99.90
9215;DHT22;4642;51.364;6.788;2022-11-10T07:43:35;8.90;99.90
9215;DHT22;4642;51.364;6.788;2022-11-10T07:46:01;8.90;99.90
9215;DHT22;4642;51.364;6.788;2022-11-10T07:48:26;9.00;99.90
9215;DHT22;4642;51.364;6.788;2022-11-10T07:50:52;9.00;99.90
9215;DHT22;4642;51.364;6.788;2022-11-10T07:53:19;9.00;99.90
9215;DHT22;4642;51.364;6.788;2022-11-10T07:55:44;9.00;99.90
9215;DHT22;4642;51.364;6.788;2022-11-10T07:58:14;9.10;99.90
9215;DHT22;4642;51.364;6.788;2022-11-10T08:00:41;9.10;99.90
9215;DHT22;4642;51.364;6.788;2022-11-10T08:03:11;9.10;99.90
9215;DHT22;4642;51.364;6.788;2022-11-10T08:05:37;9.10;99.90
9215;DHT22;4642;51.364;6.788;2022-11-10T08:08:03;9.20;99.90
9215;DHT22;4642;51.364;6.788;2022-11-10T08:10:30;9.30;99.90
9215;DHT22;4642;51.364;6.788;2022-11-10T08:12:58;9.30;99.90
9215;DHT22;4642;51.364;6.788;2022-11-10T08:15:24;9.30;99.90
9215;DHT22;4642;51.364;6.788;2022-11-10T08:17:50;9.40;99.90
9215;DHT22;4642;51.364;6.788;2022-11-10T08:20:16;9.50;99.90
9215;DHT22;4642;51.364;6.788;2022-11-10T08:22:42;9.50;99.90
9215;DHT22;4642;51.364;6.788;2022-11-10T08:25:08;9.50;99.90
9215;DHT22;4642;51.364;6.788;2022-11-10T08:27:34;9.50;99.90
9215;DHT22;4642;51.364;6.788;2022-11-10T08:29:59;9.60;99.90
9215;DHT22;4642;51.364;6.788;2022-11-10T08:32:25;9.70;99.90
9215;DHT22;4642;51.364;6.788;2022-11-10T08:34:50;9.70;99.90
9215;DHT22;4642;51.364;6.788;2022-11-10T08:37:16;9.80;99.90
9215;DHT22;4642;51.364;6.788;2022-11-10T08:39:42;9.80;99.90
9215;DHT22;4642;51.364;6.788;2022-11-10T08:42:07;9.90;99.90
9215;DHT22;4642;51.364;6.788;2022-11-10T08:44:33;9.90;99.90
9215;DHT22;4642;51.364;6.788;2022-11-10T08:46:58;10.00;99.90
9215;DHT22;4642;51.364;6.788;2022-11-10T08:49:24;10.10;99.90
9215;DHT22;4642;51.364;6.788;2022-11-10T08:51:49;10.10;99.90
9215;DHT22;4642;51.364;6.788;2022-11-10T08:54:15;10.20;99.90
9215;DHT22;4642;51.364;6.788;2022-11-10T08:56:40;10.30;99.90
9215;DHT22;4642;51.364;6.788;2022-11-10T08:59:06;10.30;99.90
9215;DHT22;4642;51.364;6.788;2022-11-10T09:01:31;10.40;99.90
9215;DHT22;4642;51.364;6.788;2022-11-10T09:03:57;10.40;99.90
9215;DHT22;4642;51.364;6.788;2022-11-10T09:06:22;10.50;99.90
9215;DHT22;4642;51.364;6.788;2022-11-10T09:08:48;10.50;99.90
9215;DHT22;4642;51.364;6.788;2022-11-10T09:11:13;10.60;99.90
9215;DHT22;4642;51.364;6.788;2022-11-10T09:13:39;10.70;99.90
9215;DHT22;4642;51.364;6.788;2022-11-10T09:16:05;10.70;99.90
9215;DHT22;4642;51.364;6.788;2022-11-10T09:18:31;10.80;99.90
9215;DHT22;4642;51.364;6.788;2022-11-10T09:20:57;10.80;99.90
9215;DHT22;4642;51.364;6.788;2022-11-10T09:23:23;10.90;99.90
9215;DHT22;4642;51.364;6.788;2022-11-10T09:25:54;10.90;99.90
9215;DHT22;4642;51.364;6.788;2022-11-10T09:28:20;11.00;99.90
9215;DHT22;4642;51.364;6.788;2022-11-10T09:30:47;11.10;99.90
9215;DHT22;4642;51.364;6.788;2022-11-10T09:33:13;11.10;99.90
9215;DHT22;4642;51.364;6.788;2022-11-10T09:35:39;11.30;99.90
9215;DHT22;4642;51.364;6.788;2022-11-10T09:38:05;11.40;99.90
9215;DHT22;4642;51.364;6.788;2022-11-10T09:41:00;11.50;99.90
9215;DHT22;4642;51.364;6.788;2022-11-10T09:43:58;11.50;99.90
9215;DHT22;4642;51.364;6.788;2022-11-10T09:46:34;11.60;99.90
9215;DHT22;4642;51.364;6.788;2022-11-10T09:49:21;11.60;99.90
9215;DHT22;4642;51.364;6.788;2022-11-10T09:51:49;11.70;99.90
9215;DHT22;4642;51.364;6.788;2022-11-10T09:57:09;11.90;99.90
9215;DHT22;4642;51.364;6.788;2022-11-10T09:59:35;11.90;99.90
9215;DHT22;4642;51.364;6.788;2022-11-10T10:02:09;11.90;99.90
9215;DHT22;4642;51.364;6.788;2022-11-10T10:07:29;12.10;99.90
9215;DHT22;4642;51.364;6.788;2022-11-10T10:10:10;12.10;99.90
9215;DHT22;4642;51.364;6.788;2022-11-10T10:15:28;12.30;99.90
9215;DHT22;4642;51.364;6.788;2022-11-10T10:24:01;12.50;99.90
9215;DHT22;4642;51.364;6.788;2022-11-10T10:26:30;12.50;99.90
9215;DHT22;4642;51.364;6.788;2022-11-10T10:29:01;12.60;99.90
9215;DHT22;4642;51.364;6.788;2022-11-10T10:31:38;12.60;99.90
9215;DHT22;4642;51.364;6.788;2022-11-10T10:34:11;12.70;99.90
9215;DHT22;4642;51.364;6.788;2022-11-10T10:36:37;12.70;99.90
9215;DHT22;4642;51.364;6.788;2022-11-10T10:39:15;12.80;99.90
9215;DHT22;4642;51.364;6.788;2022-11-10T10:41:44;12.90;99.90
9215;DHT22;4642;51.364;6.788;2022-11-10T10:44:15;13.00;99.90
9215;DHT22;4642;51.364;6.788;2022-11-10T10:46:47;13.00;99.90
9215;DHT22;4642;51.364;6.788;2022-11-10T10:49:34;13.10;99.90
9215;DHT22;4642;51.364;6.788;2022-11-10T10:52:18;13.10;99.90
9215;DHT22;4642;51.364;6.788;2022-11-10T10:54:59;13.20;99.90
9215;DHT22;4642;51.364;6.788;2022-11-10T10:57:27;13.30;99.90
9215;DHT22;4642;51.364;6.788;2022-11-10T11:00:20;13.30;99.90
9215;DHT22;4642;51.364;6.788;2022-11-10T11:03:08;13.40;99.90
9215;DHT22;4642;51.364;6.788;2022-11-10T11:05:35;13.50;99.90
9215;DHT22;4642;51.364;6.788;2022-11-10T11:08:02;13.50;99.90
9215;DHT22;4642;51.364;6.788;2022-11-10T11:10:31;13.60;99.90
9215;DHT22;4642;51.364;6.788;2022-11-10T11:13:23;13.60;99.90
9215;DHT22;4642;51.364;6.788;2022-11-10T11:16:09;13.70;99.90
9215;DHT22;4642;51.364;6.788;2022-11-10T11:18:38;13.80;99.90
9215;DHT22;4642;51.364;6.788;2022-11-10T11:27:27;14.10;99.90
9215;DHT22;4642;51.364;6.788;2022-11-10T11:30:15;14.10;99.90
9215;DHT22;4642;51.364;6.788;2022-11-10T11:35:56;14.10;99.90
9215;DHT22;4642;51.364;6.788;2022-11-10T11:38:32;14.10;1.00
9215;DHT22;4642;51.364;6.788;2022-11-10T11:41:13;14.20;1.00
9215;DHT22;4642;51.364;6.788;2022-11-10T11:52:33;14.30;1.00
9215;DHT22;4642;51.364;6.788;2022-11-10T11:58:16;14.40;1.00
9215;DHT22;4642;51.364;6.788;2022-11-10T12:01:12;14.50;12.80
9215;DHT22;4642;51.364;6.788;2022-11-10T12:06:53;14.60;99.90
9215;DHT22;4642;51.364;6.788;2022-11-10T12:12:01;14.70;11.90
9215;DHT22;4642;51.364;6.788;2022-11-10T12:20:41;14.90;99.90
9215;DHT22;4642;51.364;6.788;2022-11-10T12:23:45;14.90;1.00
9215;DHT22;4642;51.364;6.788;2022-11-10T12:29:39;15.00;12.20
9215;DHT22;4642;51.364;6.788;2022-11-10T12:32:14;15.10;38.00
9215;DHT22;4642;51.364;6.788;2022-11-10T12:34:44;15.10;1.00
9215;DHT22;4642;51.364;6.788;2022-11-10T12:37:27;15.10;1.00
9215;DHT22;4642;51.364;6.788;2022-11-10T12:40:02;15.10;93.60
9215;DHT22;4642;51.364;6.788;2022-11-10T12:42:30;15.10;1.00
9215;DHT22;4642;51.364;6.788;2022-11-10T12:45:04;15.10;1.00
9215;DHT22;4642;51.364;6.788;2022-11-10T12:47:50;15.20;1.00
9215;DHT22;4642;51.364;6.788;2022-11-10T12:53:13;15.20;99.90
9215;DHT22;4642;51.364;6.788;2022-11-10T12:55:56;15.30;1.00
9215;DHT22;4642;51.364;6.788;2022-11-10T12:58:24;15.30;1.00
9215;DHT22;4642;51.364;6.788;2022-11-10T13:00:55;15.20;99.90
9215;DHT22;4642;51.364;6.788;2022-11-10T13:03:33;15.30;99.90
9215;DHT22;4642;51.364;6.788;2022-11-10T13:06:04;15.30;1.00
9215;DHT22;4642;51.364;6.788;2022-11-10T13:11:02;15.30;1.00
9215;DHT22;4642;51.364;6.788;2022-11-10T13:13:29;15.30;1.00
9215;DHT22;4642;51.364;6.788;2022-11-10T13:16:04;15.30;1.00
9215;DHT22;4642;51.364;6.788;2022-11-10T13:20:56;15.30;1.00
9215;DHT22;4642;51.364;6.788;2022-11-10T13:26:04;15.40;99.90
9215;DHT22;4642;51.364;6.788;2022-11-10T13:31:38;15.40;99.90
9215;DHT22;4642;51.364;6.788;2022-11-10T13:34:08;15.40;1.00
9215;DHT22;4642;51.364;6.788;2022-11-10T13:36:45;15.40;99.90
9215;DHT22;4642;51.364;6.788;2022-11-10T13:39:34;15.30;99.90
9215;DHT22;4642;51.364;6.788;2022-11-10T13:44:37;15.20;99.90
9215;DHT22;4642;51.364;6.788;2022-11-10T13:49:53;15.10;99.90
9215;DHT22;4642;51.364;6.788;2022-11-10T13:58:26;15.10;99.90
9215;DHT22;4642;51.364;6.788;2022-11-10T14:06:37;15.00;99.90
9215;DHT22;4642;51.364;6.788;2022-11-10T14:09:21;15.00;99.90
9215;DHT22;4642;51.364;6.788;2022-11-10T14:11:54;15.00;99.90
9215;DHT22;4642;51.364;6.788;2022-11-10T14:16:58;15.00;99.90
9215;DHT22;4642;51.364;6.788;2022-11-10T14:19:38;15.00;99.90
9215;DHT22;4642;51.364;6.788;2022-11-10T14:27:27;14.80;99.90
9215;DHT22;4642;51.364;6.788;2022-11-10T14:32:28;14.80;1.00
9215;DHT22;4642;51.364;6.788;2022-11-10T14:34:54;14.80;1.00
9215;DHT22;4642;51.364;6.788;2022-11-10T14:37:22;14.70;1.00
9215;DHT22;4642;51.364;6.788;2022-11-10T14:39:56;14.70;1.00
9215;DHT22;4642;51.364;6.788;2022-11-10T14:42:25;14.60;1.00
9215;DHT22;4642;51.364;6.788;2022-11-10T14:45:28;14.60;1.00
9215;DHT22;4642;51.364;6.788;2022-11-10T14:47:58;14.50;1.00
9215;DHT22;4642;51.364;6.788;2022-11-10T14:50:32;14.50;1.00
9215;DHT22;4642;51.364;6.788;2022-11-10T14:53:15;14.40;1.00
9215;DHT22;4642;51.364;6.788;2022-11-10T14:55:43;14.40;1.00
9215;DHT22;4642;51.364;6.788;2022-11-10T15:00:41;14.30;1.00
9215;DHT22;4642;51.364;6.788;2022-11-10T15:03:33;14.20;1.00
9215;DHT22;4642;51.364;6.788;2022-11-10T15:05:57;14.20;1.00
9215;DHT22;4642;51.364;6.788;2022-11-10T15:08:22;14.20;1.00
9215;DHT22;4642;51.364;6.788;2022-11-10T15:10:50;14.20;1.00
9215;DHT22;4642;51.364;6.788;2022-11-10T15:13:32;14.10;1.00
9215;DHT22;4642;51.364;6.788;2022-11-10T15:18:46;14.10;1.00
9215;DHT22;4642;51.364;6.788;2022-11-10T15:21:15;14.00;1.00
9215;DHT22;4642;51.364;6.788;2022-11-10T15:23:42;14.00;1.00
9215;DHT22;4642;51.364;6.788;2022-11-10T15:26:25;13.90;1.00
9215;DHT22;4642;51.364;6.788;2022-11-10T15:28:51;13.90;1.00
9215;DHT22;4642;51.364;6.788;2022-11-10T15:31:23;13.90;1.00
9215;DHT22;4642;51.364;6.788;2022-11-10T15:33:54;13.80;1.00
9215;DHT22;4642;51.364;6.788;2022-11-10T15:41:36;13.60;1.00
9215;DHT22;4642;51.364;6.788;2022-11-10T15:46:38;13.60;1.00
9215;DHT22;4642;51.364;6.788;2022-11-10T15:49:09;13.50;1.00
9215;DHT22;4642;51.364;6.788;2022-11-10T15:51:37;13.50;1.00
9215;DHT22;4642;51.364;6.788;2022-11-10T15:54:08;13.40;1.00
9215;DHT22;4642;51.364;6.788;2022-11-10T15:56:34;13.40;1.00
9215;DHT22;4642;51.364;6.788;2022-11-10T15:59:00;13.30;1.00
9215;DHT22;4642;51.364;6.788;2022-11-10T16:01:25;13.30;1.00
9215;DHT22;4642;51.364;6.788;2022-11-10T16:03:51;13.20;1.00
9215;DHT22;4642;51.364;6.788;2022-11-10T16:06:16;13.20;1.00
9215;DHT22;4642;51.364;6.788;2022-11-10T16:08:42;13.20;1.00
9215;DHT22;4642;51.364;6.788;2022-11-10T16:11:15;13.10;1.00
9215;DHT22;4642;51.364;6.788;2022-11-10T16:13:41;13.10;1.00
9215;DHT22;4642;51.364;6.788;2022-11-10T16:16:12;13.10;1.00
9215;DHT22;4642;51.364;6.788;2022-11-10T16:18:38;13.10;1.00
9215;DHT22;4642;51.364;6.788;2022-11-10T16:21:04;13.00;1.00
9215;DHT22;4642;51.364;6.788;2022-11-10T16:23:30;13.00;1.00
9215;DHT22;4642;51.364;6.788;2022-11-10T16:25:56;13.00;1.00
9215;DHT22;4642;51.364;6.788;2022-11-10T16:28:24;13.00;1.00
9215;DHT22;4642;51.364;6.788;2022-11-10T16:30:51;12.90;1.00
9215;DHT22;4642;51.364;6.788;2022-11-10T16:33:19;12.90;1.00
9215;DHT22;4642;51.364;6.788;2022-11-10T16:35:48;12.90;1.00
9215;DHT22;4642;51.364;6.788;2022-11-10T16:38:28;12.90;1.00
9215;DHT22;4642;51.364;6.788;2022-11-10T16:40:59;12.90;1.00
9215;DHT22;4642;51.364;6.788;2022-11-10T16:43:25;12.90;1.00
9215;DHT22;4642;51.364;6.788;2022-11-10T16:45:53;12.80;1.00
9215;DHT22;4642;51.364;6.788;2022-11-10T16:48:37;12.80;1.00
9215;DHT22;4642;51.364;6.788;2022-11-10T16:51:03;12.70;1.00
9215;DHT22;4642;51.364;6.788;2022-11-10T16:53:30;12.80;1.00
9215;DHT22;4642;51.364;6.788;2022-11-10T16:55:56;12.70;1.00
9215;DHT22;4642;51.364;6.788;2022-11-10T16:58:25;12.70;1.00
9215;DHT22;4642;51.364;6.788;2022-11-10T17:00:53;12.70;1.00
9215;DHT22;4642;51.364;6.788;2022-11-10T17:03:29;12.60;1.00
9215;DHT22;4642;51.364;6.788;2022-11-10T17:05:55;12.60;1.00
9215;DHT22;4642;51.364;6.788;2022-11-10T17:08:24;12.50;1.00
9215;DHT22;4642;51.364;6.788;2022-11-10T17:10:50;12.50;1.00
9215;DHT22;4642;51.364;6.788;2022-11-10T17:13:16;12.50;1.00
9215;DHT22;4642;51.364;6.788;2022-11-10T17:15:43;12.40;1.00
9215;DHT22;4642;51.364;6.788;2022-11-10T17:18:14;12.40;1.00
9215;DHT22;4642;51.364;6.788;2022-11-10T17:20:44;12.40;1.00
9215;DHT22;4642;51.364;6.788;2022-11-10T17:23:13;12.40;1.00
9215;DHT22;4642;51.364;6.788;2022-11-10T17:25:40;12.30;1.00
9215;DHT22;4642;51.364;6.788;2022-11-10T17:28:10;12.30;1.00
9215;DHT22;4642;51.364;6.788;2022-11-10T17:30:36;12.30;1.00
9215;DHT22;4642;51.364;6.788;2022-11-10T17:33:02;12.30;1.00
9215;DHT22;4642;51.364;6.788;2022-11-10T17:35:28;12.20;1.00
9215;DHT22;4642;51.364;6.788;2022-11-10T17:37:56;12.20;1.00
9215;DHT22;4642;51.364;6.788;2022-11-10T17:40:25;12.20;1.00
9215;DHT22;4642;51.364;6.788;2022-11-10T17:42:51;12.20;1.00
9215;DHT22;4642;51.364;6.788;2022-11-10T17:45:20;12.10;1.00
9215;DHT22;4642;51.364;6.788;2022-11-10T17:47:48;12.10;1.00
9215;DHT22;4642;51.364;6.788;2022-11-10T17:50:15;12.10;1.00
9215;DHT22;4642;51.364;6.788;2022-11-10T17:52:41;12.10;1.00
9215;DHT22;4642;51.364;6.788;2022-11-10T17:55:13;12.10;1.00
9215;DHT22;4642;51.364;6.788;2022-11-10T17:57:40;12.10;1.00
9215;DHT22;4642;51.364;6.788;2022-11-10T18:00:06;12.10;1.00
9215;DHT22;4642;51.364;6.788;2022-11-10T18:02:32;12.10;1.00
9215;DHT22;4642;51.364;6.788;2022-11-10T18:04:58;12.10;1.00
9215;DHT22;4642;51.364;6.788;2022-11-10T18:07:23;12.10;1.00
9215;DHT22;4642;51.364;6.788;2022-11-10T18:09:49;12.00;1.00
9215;DHT22;4642;51.364;6.788;2022-11-10T18:12:14;12.10;1.00